Time;durP1;ratioP1;P1;durP2;ratioP2;P2;SDS_P1;SDS_P2;PMS_P1;PMS_P2;Temp;Humidity;BMP_temperature;BMP_pressure;BME280_temperature;BME280_humidity;BME280_pressure;Samples;Min_cycle;Max_cycle;Signal;HPM_P1;HPM_P2
2022/04/30 00:00:40;;;;;;;19.60;6.97;;;;;;;5.75;79.16;102713.22;5012380;28;20057;-76
2022/04/30 00:03:07;;;;;;;20.95;6.72;;;;;;;5.73;78.80;102712.38;5012396;28;20427;-76
2022/04/30 00:05:33;;;;;;;19.33;7.40;;;;;;;5.73;79.64;102708.84;5012054;28;20080;-76
2022/04/30 00:08:00;;;;;;;21.35;6.45;;;;;;;5.70;78.89;102711.56;5012181;28;20033;-76
2022/04/30 00:10:26;;;;;;;22.25;6.32;;;;;;;5.68;79.31;102710.72;5011010;28;20038;-76
2022/04/30 00:12:52;;;;;;;19.70;7.03;;;;;;;5.65;79.47;102711.69;5012348;28;20469;-76
2022/04/30 00:15:17;;;;;;;19.05;7.07;;;;;;;5.64;79.09;102709.03;5012133;28;20125;-76
2022/04/30 00:17:43;;;;;;;19.42;6.90;;;;;;;5.63;79.54;102704.63;5020043;28;20476;-76
2022/04/30 00:20:08;;;;;;;19.50;6.55;;;;;;;5.62;79.08;102706.38;5031898;28;20029;-76
2022/04/30 00:22:34;;;;;;;19.13;5.97;;;;;;;5.60;78.87;102713.56;5031647;28;20520;-76
2022/04/30 00:25:00;;;;;;;18.35;6.03;;;;;;;5.54;79.39;102708.38;5031869;28;20025;-76
2022/04/30 00:27:25;;;;;;;18.45;6.22;;;;;;;5.49;78.96;102710.25;5031652;28;20041;-76
2022/04/30 00:29:52;;;;;;;17.85;5.78;;;;;;;5.49;78.91;102710.25;5023288;28;20493;-76
2022/04/30 00:32:17;;;;;;;15.98;6.05;;;;;;;5.46;79.42;102704.97;5011925;28;20397;-76
2022/04/30 00:34:42;;;;;;;17.38;6.38;;;;;;;5.45;79.81;102706.78;5010637;28;20022;-76
2022/04/30 00:37:07;;;;;;;18.05;6.28;;;;;;;5.41;79.68;102705.09;5011716;28;20075;-76
2022/04/30 00:39:35;;;;;;;17.92;5.57;;;;;;;5.38;79.78;102710.50;5011822;28;20037;-76
2022/04/30 00:42:00;;;;;;;19.10;6.15;;;;;;;5.38;79.18;102707.81;5010528;28;20026;-76
2022/04/30 00:44:27;;;;;;;19.10;6.85;;;;;;;5.38;79.67;102699.81;5011771;28;20014;-76
2022/04/30 00:46:53;;;;;;;14.95;5.40;;;;;;;5.36;80.02;102701.63;5012722;28;20088;-76
2022/04/30 00:49:19;;;;;;;16.38;5.30;;;;;;;5.35;79.81;102699.91;5031406;28;20080;-76
2022/04/30 00:51:44;;;;;;;14.85;5.43;;;;;;;5.30;79.89;102699.09;5031245;28;20025;-76
2022/04/30 00:54:11;;;;;;;15.98;5.05;;;;;;;5.22;79.07;102692.16;5031349;28;20033;-76
2022/04/30 00:56:44;;;;;;;17.25;5.50;;;;;;;5.21;79.07;102690.41;5030033;28;20022;-76
2022/04/30 00:59:10;;;;;;;15.60;4.55;;;;;;;5.18;79.31;102686.91;5031275;28;20018;-76
2022/04/30 01:01:36;;;;;;;18.67;5.65;;;;;;;5.15;79.22;102682.53;5031345;28;20079;-75
2022/04/30 01:04:02;;;;;;;14.02;4.78;;;;;;;5.11;79.67;102687.94;5031262;28;20104;-75
2022/04/30 01:06:52;;;;;;;14.30;5.43;;;;;;;5.15;79.65;102687.84;5030735;28;20038;-75
2022/04/30 01:09:25;;;;;;;17.70;6.07;;;;;;;5.08;80.21;102692.44;5022881;28;20131;-75
2022/04/30 01:11:58;;;;;;;14.93;5.13;;;;;;;5.06;80.12;102686.25;5011427;28;20037;-75
2022/04/30 01:14:29;;;;;;;16.17;4.80;;;;;;;5.06;79.59;102696.91;5011407;28;20022;-75
2022/04/30 01:16:57;;;;;;;17.63;4.78;;;;;;;5.08;79.87;102691.53;5012772;28;20029;-75
2022/04/30 01:19:23;;;;;;;13.52;4.65;;;;;;;5.06;80.26;102686.25;5030913;28;20014;-75
2022/04/30 01:21:50;;;;;;;16.27;5.43;;;;;;;5.03;80.46;102688.97;5030831;28;20022;-75
2022/04/30 01:24:24;;;;;;;15.75;4.65;;;;;;;5.02;80.27;102686.34;5030912;28;20100;-75
2022/04/30 01:26:51;;;;;;;16.92;4.78;;;;;;;5.03;80.42;102688.13;5031005;28;20033;-75
2022/04/30 01:29:18;;;;;;;17.42;4.97;;;;;;;5.03;80.66;102674.78;5030886;28;20018;-75
2022/04/30 01:37:23;;;;;;;16.58;5.88;;;;;;;4.99;80.72;102675.75;5030941;28;20127;-75
2022/04/30 01:39:52;;;;;;;16.55;4.95;;;;;;;4.96;81.21;102675.81;5030968;28;20049;-75
2022/04/30 01:42:18;;;;;;;15.23;5.00;;;;;;;4.97;81.15;102675.78;5029525;28;20028;-75
2022/04/30 01:44:46;;;;;;;19.92;5.30;;;;;;;4.95;81.51;102674.97;5030919;28;20025;-75
2022/04/30 01:47:14;;;;;;;25.63;6.57;;;;;;;4.94;81.31;102675.84;5030551;28;20477;-75
2022/04/30 01:49:39;;;;;;;16.15;5.30;;;;;;;4.90;81.59;102672.41;5031133;28;20397;-75
2022/04/30 01:52:09;;;;;;;16.77;4.68;;;;;;;4.90;81.50;102668.84;5029201;28;20030;-75
2022/04/30 01:54:35;;;;;;;;;;;;;;;4.98;79.49;102677.56;5029941;28;20080;-75
2022/04/30 01:57:00;;;;;;;18.02;5.63;;;;;;;4.87;80.64;102669.75;5030655;28;19909;-75
2022/04/30 01:59:25;;;;;;;17.83;5.20;;;;;;;4.85;80.96;102671.59;5022504;28;20362;-75
2022/04/30 02:01:51;;;;;;;15.77;4.90;;;;;;;4.82;81.17;102670.78;5010678;28;20033;-75
2022/04/30 02:04:18;;;;;;;18.77;4.95;;;;;;;4.81;81.20;102664.56;5011063;28;20026;-75
2022/04/30 02:06:45;;;;;;;18.90;5.47;;;;;;;4.76;81.92;102663.78;5009108;28;20046;-75
2022/04/30 02:09:11;;;;;;;20.77;5.97;;;;;;;4.72;81.71;102657.63;5010791;28;20489;-75
2022/04/30 02:11:37;;;;;;;17.63;4.88;;;;;;;4.70;81.65;102662.13;5010994;28;20026;-75
2022/04/30 02:14:03;;;;;;;15.02;4.45;;;;;;;4.70;81.69;102661.22;5010732;28;20026;-75
2022/04/30 02:16:31;;;;;;;16.58;5.40;;;;;;;4.68;81.33;102655.06;5009327;28;20125;-75
2022/04/30 02:18:59;;;;;;;17.83;5.40;;;;;;;4.66;81.22;102660.41;5027562;28;20485;-75
2022/04/30 02:21:29;;;;;;;20.05;5.90;;;;;;;4.65;81.07;102653.34;5033966;28;20512;-75
2022/04/30 02:23:57;;;;;;;17.02;5.32;;;;;;;4.60;81.04;102656.97;5034200;28;20100;-75
2022/04/30 02:26:25;;;;;;;15.77;4.82;;;;;;;4.58;80.79;102658.81;5033431;28;20029;-75
2022/04/30 02:28:51;;;;;;;16.50;5.55;;;;;;;4.54;81.42;102653.53;5033542;28;20022;-75
2022/04/30 02:31:22;;;;;;;13.15;4.60;;;;;;;4.51;81.30;102652.72;5015072;28;20494;-75
2022/04/30 02:33:47;;;;;;;17.75;5.97;;;;;;;4.50;81.23;102648.31;5014206;28;20076;-75
2022/04/30 02:36:14;;;;;;;16.92;5.28;;;;;;;4.49;81.97;102652.75;5014018;28;20025;-75
2022/04/30 02:38:39;;;;;;;15.95;5.30;;;;;;;4.45;81.40;102645.75;5013987;28;20022;-75
2022/04/30 02:41:04;;;;;;;18.00;6.78;;;;;;;4.42;81.56;102643.09;5012794;28;20030;-75
2022/04/30 02:43:30;;;;;;;17.90;5.68;;;;;;;4.39;81.09;102645.84;5014032;28;20017;-75
2022/04/30 02:45:56;;;;;;;16.85;5.80;;;;;;;4.35;81.28;102652.16;5013772;28;20032;-75
2022/04/30 02:48:22;;;;;;;18.95;5.55;;;;;;;4.29;81.60;102652.22;5025563;28;20025;-74
2022/04/30 02:50:48;;;;;;;15.25;5.05;;;;;;;4.23;81.50;102639.91;5032223;28;20029;-74
2022/04/30 02:53:13;;;;;;;17.65;5.57;;;;;;;4.18;81.50;102641.78;5033562;28;20022;-74
2022/04/30 02:55:38;;;;;;;21.92;6.13;;;;;;;4.16;82.22;102641.81;5032162;28;20032;-74
2022/04/30 03:00:51;;;;;;;18.42;6.03;;;;;;;4.12;81.81;102645.44;5033515;28;20080;-74
2022/04/30 03:03:17;;;;;;;20.00;6.18;;;;;;;4.11;82.15;102645.47;5033308;28;20491;-74
2022/04/30 03:05:44;;;;;;;19.05;6.18;;;;;;;4.08;82.25;102650.84;5032771;28;20088;-74
2022/04/30 03:08:12;;;;;;;19.48;5.63;;;;;;;4.03;82.47;102646.47;5033272;28;20029;-74
2022/04/30 03:10:42;;;;;;;17.80;6.45;;;;;;;4.01;82.92;102650.94;5017873;28;20064;-74
2022/04/30 03:13:07;;;;;;;21.05;6.72;;;;;;;3.97;82.96;102643.91;5013812;28;20025;-74
2022/04/30 03:15:34;;;;;;;19.25;6.43;;;;;;;3.90;83.18;102652.91;5013431;28;20022;-74
2022/04/30 03:23:28;;;;;;;18.50;6.15;;;;;;;3.89;82.95;102640.50;5033320;28;20044;-74
2022/04/30 03:25:53;;;;;;;16.25;5.95;;;;;;;3.90;83.50;102638.72;5031601;28;20463;-74
2022/04/30 03:28:18;;;;;;;18.48;6.60;;;;;;;3.89;84.05;102637.84;5031541;28;20079;-74
2022/04/30 03:30:43;;;;;;;17.67;6.68;;;;;;;3.87;83.91;102639.66;5030833;28;20467;-74
2022/04/30 03:33:09;;;;;;;19.40;6.63;;;;;;;3.87;83.81;102630.81;5031272;28;20033;-74
2022/04/30 03:35:37;;;;;;;20.20;7.03;;;;;;;3.88;84.39;102628.13;5032769;28;20033;-74
2022/04/30 03:38:02;;;;;;;20.00;6.90;;;;;;;3.88;84.29;102624.56;5032725;28;20049;-74
2022/04/30 03:40:28;;;;;;;18.60;5.65;;;;;;;3.85;84.19;102623.72;5031351;28;20307;-74
2022/04/30 03:42:54;;;;;;;23.08;7.38;;;;;;;3.83;83.99;102617.53;5031354;28;20036;-74
2022/04/30 03:45:19;;;;;;;18.80;6.85;;;;;;;3.82;84.11;102625.53;5032732;28;20035;-74
2022/04/30 03:47:44;;;;;;;20.73;6.53;;;;;;;3.80;83.75;102625.56;5032371;28;20470;-74
2022/04/30 03:50:10;;;;;;;18.48;7.13;;;;;;;3.76;83.91;102618.53;5031187;28;20459;-74
2022/04/30 03:52:35;;;;;;;18.40;5.90;;;;;;;3.74;84.40;102623.00;5032525;28;20060;-74
2022/04/30 03:55:00;;;;;;;21.13;6.72;;;;;;;3.73;84.15;102615.91;5031099;28;20033;-74
2022/04/30 03:57:28;;;;;;;19.27;6.32;;;;;;;3.74;84.00;102622.16;5032363;28;20079;-74
2022/04/30 03:59:54;;;;;;;21.15;7.22;;;;;;;3.71;84.20;102625.72;5015089;28;20050;-74
2022/04/30 04:02:19;;;;;;;19.02;6.97;;;;;;;3.68;84.50;102621.31;5012871;28;20065;-74
2022/04/30 04:04:45;;;;;;;20.98;6.20;;;;;;;3.65;83.96;102625.81;5012368;28;20038;-75
2022/04/30 04:07:10;;;;;;;21.25;6.68;;;;;;;3.65;84.19;102625.81;5011948;28;20050;-75
2022/04/30 04:09:36;;;;;;;20.55;6.90;;;;;;;3.63;84.44;102624.94;5012483;28;20482;-75
2022/04/30 04:12:01;;;;;;;19.67;6.43;;;;;;;3.61;83.95;102629.44;5011262;28;20087;-75
2022/04/30 04:19:54;;;;;;;19.98;7.22;;;;;;;3.51;84.29;102628.69;5032256;28;20476;-74
2022/04/30 04:22:20;;;;;;;20.58;7.22;;;;;;;3.47;84.59;102625.19;5031644;28;20131;-74
2022/04/30 04:27:29;;;;;;;21.45;7.55;;;;;;;3.48;84.74;102631.38;5031874;28;20085;-74
2022/04/30 04:29:55;;;;;;;19.88;7.30;;;;;;;3.50;84.72;102633.13;5024393;28;20018;-74
2022/04/30 04:32:21;;;;;;;20.35;7.28;;;;;;;3.50;84.65;102630.47;5011870;28;20065;-74
2022/04/30 04:34:46;;;;;;;21.42;7.13;;;;;;;3.50;84.92;102630.47;5012017;28;20057;-74
2022/04/30 04:37:11;;;;;;;20.45;7.80;;;;;;;3.51;84.94;102634.00;5011624;28;20547;-74
2022/04/30 04:39:37;;;;;;;20.10;6.72;;;;;;;3.53;85.36;102631.31;5011992;28;20025;-74
2022/04/30 04:42:03;;;;;;;21.63;8.13;;;;;;;3.52;85.54;102632.25;5011694;28;20025;-74
2022/04/30 04:44:29;;;;;;;21.40;7.22;;;;;;;3.52;85.62;102645.53;5012097;28;20461;-74
2022/04/30 04:46:54;;;;;;;20.98;7.97;;;;;;;3.53;85.84;102639.28;5011493;28;20041;-74
2022/04/30 04:49:19;;;;;;;21.85;8.05;;;;;;;3.55;85.51;102640.16;5031394;28;20025;-74
2022/04/30 04:51:45;;;;;;;22.73;7.68;;;;;;;3.57;85.91;102646.31;5029934;28;20018;-74
2022/04/30 04:54:10;;;;;;;21.35;7.63;;;;;;;3.59;85.59;102652.50;5029876;28;20029;-74
2022/04/30 04:56:35;;;;;;;22.35;8.10;;;;;;;3.59;86.18;102657.84;5031286;28;20381;-74
2022/04/30 04:59:00;;;;;;;20.25;7.05;;;;;;;3.60;86.01;102654.25;5029996;28;20041;-74
2022/04/30 05:01:26;;;;;;;18.35;6.88;;;;;;;3.62;86.02;102652.47;5029623;28;20025;-74
2022/04/30 05:03:51;;;;;;;24.00;8.45;;;;;;;3.65;86.05;102665.72;5029881;28;20054;-74
2022/04/30 05:06:17;;;;;;;22.52;7.22;;;;;;;3.66;86.55;102660.38;5030767;28;20050;-75
2022/04/30 05:08:43;;;;;;;21.20;8.18;;;;;;;3.74;87.10;102668.22;5029913;28;20026;-75
2022/04/30 05:11:08;;;;;;;25.05;8.02;;;;;;;3.81;86.94;102669.88;5031031;28;20033;-75
2022/04/30 05:13:34;;;;;;;20.33;8.68;;;;;;;3.89;87.09;102663.56;5031309;28;20040;-75
2022/04/30 05:15:59;;;;;;;23.63;9.73;;;;;;;3.92;86.85;102663.50;5031005;28;20033;-75
2022/04/30 05:18:24;;;;;;;22.90;8.68;;;;;;;3.96;86.88;102674.06;5029386;28;20049;-75
2022/04/30 05:20:50;;;;;;;21.58;8.38;;;;;;;3.99;87.44;102662.50;5009974;28;20036;-75
2022/04/30 05:23:15;;;;;;;22.30;8.85;;;;;;;4.05;87.91;102667.72;5009907;28;20029;-75
2022/04/30 05:25:40;;;;;;;20.10;8.10;;;;;;;4.09;87.52;102661.44;5011316;28;20461;-75
2022/04/30 05:28:12;;;;;;;23.27;9.57;;;;;;;4.13;87.79;102665.81;5011179;28;20033;-74
2022/04/30 05:30:38;;;;;;;25.13;9.02;;;;;;;4.16;87.81;102668.44;5011298;28;20076;-74
2022/04/30 05:33:03;;;;;;;26.63;9.05;;;;;;;4.23;87.51;102673.63;5011237;28;20040;-74
2022/04/30 05:35:29;;;;;;;22.63;9.80;;;;;;;4.26;87.83;102666.50;5011157;28;20304;-74
2022/04/30 05:37:54;;;;;;;24.30;9.85;;;;;;;4.32;87.80;102671.72;5010989;28;20030;-74
2022/04/30 05:40:19;;;;;;;23.88;10.13;;;;;;;4.38;87.72;102666.25;5011179;28;20032;-74
2022/04/30 05:42:45;;;;;;;22.13;9.57;;;;;;;4.45;87.48;102667.03;5011328;28;20029;-74
2022/04/30 05:45:10;;;;;;;22.90;9.60;;;;;;;4.52;87.57;102659.81;5011198;28;20026;-74
2022/04/30 05:47:37;;;;;;;22.63;8.77;;;;;;;4.60;87.69;102664.97;5017854;28;20021;-74
2022/04/30 05:50:04;;;;;;;23.02;9.23;;;;;;;4.68;87.28;102666.59;5029795;28;20107;-74
2022/04/30 05:52:29;;;;;;;24.15;9.23;;;;;;;4.75;87.75;102664.69;5030620;28;20025;-74
2022/04/30 05:54:54;;;;;;;23.33;9.30;;;;;;;4.83;87.87;102670.75;5032431;28;20108;-74
2022/04/30 05:57:20;;;;;;;24.08;9.43;;;;;;;4.90;87.84;102675.06;5033256;28;20469;-74
2022/04/30 05:59:45;;;;;;;28.83;8.65;;;;;;;4.97;88.05;102669.59;5019989;28;20041;-74
2022/04/30 06:02:10;;;;;;;23.55;10.55;;;;;;;5.06;88.50;102674.72;5014798;28;20473;-74
2022/04/30 06:04:35;;;;;;;25.40;10.32;;;;;;;5.14;87.37;102674.56;5014685;28;20057;-75
2022/04/30 06:07:01;;;;;;;27.83;9.75;;;;;;;5.21;87.86;102670.84;5014221;28;20053;-75
2022/04/30 06:09:26;;;;;;;25.77;10.60;;;;;;;5.30;87.66;102664.44;5014566;28;20032;-75
2022/04/30 06:11:51;;;;;;;22.60;9.43;;;;;;;5.36;87.63;102673.19;5014618;28;20465;-75
2022/04/30 06:14:17;;;;;;;29.48;10.18;;;;;;;5.44;87.20;102681.03;5014672;28;20412;-75
2022/04/30 06:16:42;;;;;;;23.38;9.38;;;;;;;5.51;87.14;102674.63;5014349;28;20022;-75
2022/04/30 06:19:08;;;;;;;24.00;8.98;;;;;;;5.58;86.58;102678.94;5032713;28;20057;-75
2022/04/30 06:21:33;;;;;;;27.08;9.55;;;;;;;5.67;85.96;102679.63;5034043;28;20052;-75
2022/04/30 06:23:58;;;;;;;21.65;8.43;;;;;;;5.73;87.12;102680.34;5034178;28;20033;-75
2022/04/30 06:26:23;;;;;;;24.92;9.90;;;;;;;5.80;86.40;102670.44;5032585;28;20030;-75
2022/04/30 06:28:49;;;;;;;27.67;9.63;;;;;;;5.87;86.74;102679.16;5034010;28;20477;-75
2022/04/30 06:31:14;;;;;;;23.15;9.10;;;;;;;5.94;86.23;102676.31;5033971;28;20034;-75
2022/04/30 06:33:39;;;;;;;23.40;10.32;;;;;;;6.02;85.79;102681.47;5032669;28;20381;-75
2022/04/30 06:36:05;;;;;;;22.42;9.32;;;;;;;6.08;85.66;102678.66;5033779;28;20018;-75
2022/04/30 06:38:31;;;;;;;24.00;9.30;;;;;;;6.16;86.35;102683.78;5033918;28;20021;-75
2022/04/30 06:40:56;;;;;;;22.02;8.40;;;;;;;6.21;85.87;102681.00;5032478;28;20029;-75
2022/04/30 06:43:22;;;;;;;25.60;9.73;;;;;;;6.27;85.67;102678.19;5032383;28;20029;-75
2022/04/30 06:45:47;;;;;;;22.50;9.23;;;;;;;6.35;85.50;102669.97;5032556;28;20075;-75
2022/04/30 06:48:12;;;;;;;23.13;9.60;;;;;;;6.42;85.04;102674.25;5025399;28;20444;-75
2022/04/30 06:50:38;;;;;;;24.13;9.48;;;;;;;6.50;85.56;102674.94;4996054;28;20022;-75
2022/04/30 06:58:41;;;;;;;22.50;8.63;;;;;;;6.69;84.34;102669.97;5014052;28;20041;-75
2022/04/30 07:03:55;;;;;;;27.48;9.70;;;;;;;6.88;83.76;102672.09;5013943;28;20053;-75
2022/04/30 07:06:20;;;;;;;22.33;10.47;;;;;;;6.96;83.38;102673.63;5010566;28;20045;-75
2022/04/30 07:08:46;;;;;;;23.30;8.93;;;;;;;7.04;82.39;102675.22;5012148;28;20075;-75
2022/04/30 07:11:11;;;;;;;24.83;8.30;;;;;;;7.10;82.75;102670.56;5012227;28;20033;-75
2022/04/30 07:13:37;;;;;;;22.25;9.10;;;;;;;7.19;82.16;102669.44;5013523;28;20022;-75
2022/04/30 07:16:04;;;;;;;21.83;9.35;;;;;;;7.29;82.03;102672.69;5013332;28;20033;-75
2022/04/30 07:18:29;;;;;;;20.33;8.30;;;;;;;7.40;81.36;102673.25;5025228;28;20091;-75
2022/04/30 07:20:55;;;;;;;23.25;8.45;;;;;;;7.51;81.36;102673.78;5011896;28;20038;-75
2022/04/30 07:23:21;;;;;;;24.90;8.63;;;;;;;7.63;81.67;102679.69;5011873;28;20029;-75
2022/04/30 07:25:46;;;;;;;21.23;7.53;;;;;;;7.72;79.37;102683.84;5012067;28;20030;-75
2022/04/30 07:28:11;;;;;;;19.55;7.72;;;;;;;7.82;79.84;102682.66;5013183;28;20095;-75
2022/04/30 07:30:37;;;;;;;22.15;9.00;;;;;;;7.93;79.49;102682.28;5013130;28;20030;-75
2022/04/30 07:33:02;;;;;;;19.17;7.93;;;;;;;8.05;80.44;102681.88;5013004;28;20087;-75
2022/04/30 07:35:27;;;;;;;23.27;8.40;;;;;;;8.16;78.53;102673.50;5011612;28;20030;-75
2022/04/30 07:37:52;;;;;;;21.77;7.18;;;;;;;8.29;78.35;102677.50;4995217;28;20282;-75
2022/04/30 07:40:18;;;;;;;23.00;7.68;;;;;;;8.42;77.18;102669.94;5013109;28;20488;-75
2022/04/30 07:42:43;;;;;;;23.85;8.60;;;;;;;8.59;78.13;102669.34;4995241;28;20033;-75
2022/04/30 07:45:10;;;;;;;22.15;7.82;;;;;;;8.72;77.80;102673.34;5012934;28;20487;-75
2022/04/30 07:47:36;;;;;;;20.83;7.53;;;;;;;8.82;76.45;102663.16;5018150;28;20028;-75
2022/04/30 07:50:02;;;;;;;22.95;7.65;;;;;;;8.90;75.33;102671.81;5032644;28;20029;-75
2022/04/30 07:52:27;;;;;;;19.92;7.90;;;;;;;8.97;75.75;102659.03;5031173;28;20029;-75
2022/04/30 07:54:52;;;;;;;19.45;7.13;;;;;;;9.05;76.04;102662.31;5031111;28;20029;-75
2022/04/30 07:57:17;;;;;;;21.40;6.50;;;;;;;9.08;74.13;102670.22;5032730;28;20021;-75
2022/04/30 07:59:44;;;;;;;19.95;7.78;;;;;;;9.12;74.19;102660.25;5032479;28;20025;-75
2022/04/30 08:02:09;;;;;;;18.90;7.50;;;;;;;9.12;72.78;102665.59;5032066;28;20043;-75
2022/04/30 08:04:35;;;;;;;19.10;7.03;;;;;;;9.17;72.52;102660.09;5030855;28;20034;-75
2022/04/30 08:07:00;;;;;;;19.10;6.50;;;;;;;9.22;72.96;102660.78;5031829;28;20528;-75
2022/04/30 08:09:25;;;;;;;20.85;7.15;;;;;;;9.23;72.65;102651.81;5015800;28;20105;-75
2022/04/30 08:11:51;;;;;;;19.58;6.93;;;;;;;9.30;72.97;102656.00;5010985;28;20515;-75
2022/04/30 08:14:16;;;;;;;20.48;7.15;;;;;;;9.32;72.38;102656.81;5012399;28;20105;-75
2022/04/30 08:16:41;;;;;;;19.73;7.38;;;;;;;9.30;72.39;102653.31;5010621;28;20026;-75
2022/04/30 08:19:06;;;;;;;18.75;7.32;;;;;;;9.31;72.69;102659.53;5030424;28;20034;-75
2022/04/30 08:21:32;;;;;;;20.23;6.93;;;;;;;9.33;72.34;102658.56;5031763;28;20025;-75
2022/04/30 08:23:57;;;;;;;19.83;6.53;;;;;;;9.38;72.21;102656.56;5031882;28;20469;-75
2022/04/30 08:26:22;;;;;;;17.50;6.07;;;;;;;9.39;71.93;102661.00;5031885;28;20036;-75
2022/04/30 08:28:47;;;;;;;18.70;6.57;;;;;;;9.47;72.35;102658.00;5031780;28;20439;-75
2022/04/30 08:31:13;;;;;;;19.45;6.72;;;;;;;9.49;71.30;102650.78;5031688;28;20025;-75
2022/04/30 08:33:38;;;;;;;19.67;6.18;;;;;;;9.49;70.91;102653.47;5031744;28;20052;-75
2022/04/30 08:36:04;;;;;;;15.93;5.43;;;;;;;9.47;71.41;102655.31;5031634;28;20030;-75
2022/04/30 08:38:29;;;;;;;16.63;5.95;;;;;;;9.44;70.46;102650.97;5031781;28;20102;-75
2022/04/30 08:40:55;;;;;;;21.75;6.80;;;;;;;9.43;72.83;102651.03;5031624;28;20393;-75
2022/04/30 08:43:20;;;;;;;18.48;6.85;;;;;;;9.42;72.44;102651.97;5030307;28;20037;-75
2022/04/30 08:45:46;;;;;;;18.42;6.10;;;;;;;9.41;72.15;102645.72;5031404;28;20404;-75
2022/04/30 08:48:15;;;;;;;18.90;6.50;;;;;;;9.40;70.90;102643.06;5021998;28;20026;-75
2022/04/30 08:50:43;;;;;;;20.33;7.70;;;;;;;9.43;70.12;102635.78;5011636;28;20034;-75
2022/04/30 08:53:09;;;;;;;18.70;6.15;;;;;;;9.49;70.36;102636.47;5011731;28;20037;-75
2022/04/30 08:55:35;;;;;;;18.85;6.15;;;;;;;9.53;70.48;102632.72;5010297;28;20033;-75
2022/04/30 08:58:00;;;;;;;16.52;6.60;;;;;;;9.63;70.94;102639.47;5011593;28;20018;-75
2022/04/30 09:00:26;;;;;;;20.08;7.05;;;;;;;9.71;71.37;102634.69;5010347;28;20040;-75
2022/04/30 09:02:54;;;;;;;20.25;7.25;;;;;;;9.82;71.88;102638.72;5010081;28;20026;-75
2022/04/30 09:05:20;;;;;;;19.40;6.53;;;;;;;9.87;70.25;102639.41;5011543;28;20491;-75
2022/04/30 09:07:54;;;;;;;19.83;6.45;;;;;;;9.94;70.55;102633.72;5010059;28;20042;-75
2022/04/30 09:10:23;;;;;;;18.38;6.43;;;;;;;9.98;70.20;102639.84;5010205;28;20540;-75
2022/04/30 09:12:50;;;;;;;;;;;;;;;10.05;71.50;102635.09;5011809;28;20034;-75
2022/04/30 09:15:16;;;;;;;19.35;6.70;;;;;;;10.05;68.94;102644.00;5011516;28;20099;-75
2022/04/30 09:17:41;;;;;;;19.52;6.10;;;;;;;10.08;70.28;102634.94;5018943;28;20031;-75
2022/04/30 09:20:07;;;;;;;16.73;6.00;;;;;;;10.10;69.97;102633.06;5015731;28;20026;-75
2022/04/30 09:22:38;;;;;;;17.23;6.35;;;;;;;10.13;68.47;102639.19;5009858;28;20452;-75
2022/04/30 09:25:07;;;;;;;16.58;5.90;;;;;;;10.18;68.51;102635.44;5010156;28;20390;-75
2022/04/30 09:27:32;;;;;;;18.75;6.75;;;;;;;10.19;66.70;102637.16;5011244;28;20049;-75
2022/04/30 09:29:58;;;;;;;15.77;5.97;;;;;;;10.19;67.87;102634.47;5013110;28;20486;-75
2022/04/30 09:32:26;;;;;;;21.75;6.80;;;;;;;10.24;69.12;102629.78;5013919;28;20029;-75
2022/04/30 09:37:45;;;;;;;19.25;6.13;;;;;;;10.26;68.31;102622.53;5015107;28;20401;-75
2022/04/30 09:40:13;;;;;;;17.00;6.63;;;;;;;10.32;69.08;102616.88;5015277;28;20049;-75
2022/04/30 09:42:42;;;;;;;19.38;7.07;;;;;;;10.30;66.56;102622.31;5015158;28;20109;-75
2022/04/30 09:45:09;;;;;;;18.38;6.82;;;;;;;10.37;68.81;102614.91;5015238;28;20105;-75
2022/04/30 09:47:35;;;;;;;18.63;6.20;;;;;;;10.37;65.16;102612.22;5021341;28;20105;-75
2022/04/30 09:55:34;;;;;;;17.23;6.47;;;;;;;10.67;66.35;102603.72;5034929;28;20056;-75
2022/04/30 09:58:03;;;;;;;19.33;6.90;;;;;;;10.74;63.24;102599.81;5034728;28;20029;-75
2022/04/30 10:00:32;;;;;;;16.60;6.43;;;;;;;10.84;64.49;102598.44;5033595;28;20136;-75
2022/04/30 10:03:02;;;;;;;15.93;5.85;;;;;;;10.89;63.13;102590.13;5034379;28;20025;-75
2022/04/30 10:05:30;;;;;;;19.00;5.85;;;;;;;11.02;63.87;102591.34;5033064;28;20021;-75
2022/04/30 10:07:55;;;;;;;16.15;5.97;;;;;;;11.07;61.21;102593.81;5030334;28;20497;-75
2022/04/30 10:10:31;;;;;;;14.98;5.22;;;;;;;11.14;61.60;102589.88;5014742;28;20052;-75
2022/04/30 10:13:07;;;;;;;15.13;5.43;;;;;;;11.21;59.42;102594.97;5014656;28;20053;-75
2022/04/30 10:15:49;;;;;;;16.00;5.82;;;;;;;11.31;61.30;102590.88;5014471;28;20030;-75
2022/04/30 10:18:17;;;;;;;16.40;5.68;;;;;;;11.25;57.95;102586.66;5025438;28;20027;-75
2022/04/30 10:20:50;;;;;;;16.20;5.90;;;;;;;11.21;58.08;102582.38;5031108;28;20400;-75
2022/04/30 10:23:16;;;;;;;14.90;5.55;;;;;;;11.25;58.88;102581.28;5031527;28;20401;-75
2022/04/30 10:25:43;;;;;;;15.65;5.50;;;;;;;11.26;57.55;102582.13;5034133;28;20029;-75
2022/04/30 10:28:23;;;;;;;18.10;5.85;;;;;;;11.29;58.83;102588.25;5032707;28;20029;-75
2022/04/30 10:31:05;;;;;;;13.65;4.78;;;;;;;11.31;58.63;102585.50;5034161;28;20576;-75
2022/04/30 10:33:32;;;;;;;17.45;5.20;;;;;;;11.29;57.13;102577.50;5032726;28;20025;-75
2022/04/30 10:36:06;;;;;;;14.60;4.72;;;;;;;11.31;57.08;102574.72;5033766;28;20033;-75
2022/04/30 10:38:32;;;;;;;16.17;5.03;;;;;;;11.29;56.67;102576.59;5033768;28;20028;-75
2022/04/30 10:40:59;;;;;;;16.15;5.35;;;;;;;11.24;55.70;102575.97;5033907;28;20520;-75
2022/04/30 10:43:34;;;;;;;13.93;5.40;;;;;;;11.20;55.00;102569.88;5033839;28;20021;-75
2022/04/30 10:46:00;;;;;;;16.30;5.38;;;;;;;11.18;55.72;102561.84;5033761;28;20046;-75
2022/04/30 10:48:26;;;;;;;17.98;5.35;;;;;;;11.16;53.12;102563.75;5023686;28;20022;-75
2022/04/30 10:51:09;;;;;;;14.63;4.65;;;;;;;11.24;56.33;102557.13;5013930;28;20506;-75
2022/04/30 10:53:39;;;;;;;16.17;4.93;;;;;;;11.27;53.95;102565.06;5012449;28;20478;-75
2022/04/30 10:56:05;;;;;;;15.38;4.97;;;;;;;11.36;53.92;102551.13;5012361;28;20030;-75
2022/04/30 10:58:31;;;;;;;13.90;5.13;;;;;;;11.43;53.03;102546.31;5013782;28;20036;-75
2022/04/30 11:00:58;;;;;;;14.65;5.13;;;;;;;11.49;52.68;102541.53;5012354;28;20022;-75
2022/04/30 11:03:27;;;;;;;15.82;5.50;;;;;;;11.50;53.97;102545.06;5013577;28;20026;-75
2022/04/30 11:05:53;;;;;;;13.85;4.90;;;;;;;11.49;51.69;102546.91;5013575;28;20034;-75
2022/04/30 11:08:18;;;;;;;15.55;5.05;;;;;;;11.52;52.30;102535.97;5013290;28;20060;-75
2022/04/30 11:10:51;;;;;;;16.17;5.35;;;;;;;11.64;52.88;102530.91;5013629;28;20026;-75
2022/04/30 11:13:16;;;;;;;15.50;5.07;;;;;;;11.75;52.04;102525.84;5012349;28;20037;-75
2022/04/30 11:15:42;;;;;;;16.50;5.65;;;;;;;11.86;51.63;102520.78;5012054;28;20026;-75
2022/04/30 11:18:07;;;;;;;14.75;4.80;;;;;;;11.98;54.58;102522.00;5024526;28;20026;-75
2022/04/30 11:20:33;;;;;;;15.60;4.43;;;;;;;12.15;55.55;102517.53;4996493;28;20034;-75
2022/04/30 11:23:02;;;;;;;16.30;4.97;;;;;;;12.25;51.89;102513.38;5011779;28;20038;-75
2022/04/30 11:25:35;;;;;;;16.98;4.82;;;;;;;12.35;52.86;102509.22;5013289;28;20399;-75
2022/04/30 11:28:05;;;;;;;14.75;4.57;;;;;;;12.42;49.39;102504.38;5013194;28;20018;-75
2022/04/30 11:30:34;;;;;;;12.98;5.13;;;;;;;12.52;49.66;102510.16;4995496;28;20038;-75
2022/04/30 11:33:00;;;;;;;15.55;5.40;;;;;;;12.64;51.00;102501.38;5011638;28;20025;-75
2022/04/30 11:35:25;;;;;;;15.38;4.97;;;;;;;12.67;48.41;102503.03;5013079;28;20036;-75
2022/04/30 11:37:50;;;;;;;14.90;5.22;;;;;;;12.77;49.22;102494.34;5012953;28;20017;-75
2022/04/30 11:40:16;;;;;;;14.95;4.88;;;;;;;12.84;50.98;102491.28;5011700;28;20493;-75
2022/04/30 11:42:41;;;;;;;15.52;4.72;;;;;;;12.85;50.70;102488.50;5013032;28;20026;-75
2022/04/30 11:45:07;;;;;;;15.48;4.70;;;;;;;12.82;49.42;102499.47;5011525;28;20018;-75
2022/04/30 11:47:32;;;;;;;14.32;5.35;;;;;;;12.75;49.37;102498.06;5019267;28;20119;-75
2022/04/30 11:50:09;;;;;;;17.70;6.07;;;;;;;12.65;52.04;102504.94;5032571;28;20108;-75
2022/04/30 11:52:35;;;;;;;20.08;6.88;;;;;;;12.49;52.57;102496.81;5030598;28;20040;-75
2022/04/30 11:55:04;;;;;;;21.30;6.65;;;;;;;12.36;54.09;102494.81;5032981;28;20029;-75
2022/04/30 11:57:31;;;;;;;19.73;6.90;;;;;;;12.24;54.10;102501.75;5032268;28;20117;-75
2022/04/30 11:59:57;;;;;;;18.85;7.13;;;;;;;12.14;54.44;102495.09;5032396;28;20432;-75